createdAt,value
2023-09-28T00:00:28.396Z,16.50
2023-09-28T00:02:55.671Z,16.50
2023-09-28T00:05:22.534Z,16.40
2023-09-28T00:07:52.993Z,16.30
2023-09-28T00:10:19.579Z,16.20
2023-09-28T00:12:50.940Z,16.30
2023-09-28T00:15:18.201Z,16.30
2023-09-28T00:17:48.842Z,16.30
2023-09-28T00:20:21.258Z,16.20
2023-09-28T00:22:50.561Z,16.20
2023-09-28T00:25:18.027Z,16.20
2023-09-28T00:27:46.399Z,16.20
2023-09-28T00:30:14.909Z,16.30
2023-09-28T00:32:43.265Z,16.40
2023-09-28T00:35:10.543Z,16.40
2023-09-28T00:37:37.329Z,16.40
2023-09-28T00:40:29.122Z,16.40
2023-09-28T00:42:57.336Z,16.50
2023-09-28T00:45:25.771Z,16.50
2023-09-28T00:47:55.989Z,16.40
2023-09-28T00:50:23.202Z,16.30
2023-09-28T00:52:54.133Z,16.20
2023-09-28T00:55:21.925Z,16.30
2023-09-28T00:57:49.102Z,16.40
2023-09-28T01:00:20.061Z,16.50
2023-09-28T01:02:52.584Z,16.50
2023-09-28T01:05:20.413Z,16.60
2023-09-28T01:07:47.684Z,16.70
2023-09-28T01:10:16.007Z,16.70
2023-09-28T01:12:42.573Z,16.60
2023-09-28T01:15:12.332Z,16.60
2023-09-28T01:17:40.734Z,16.70
2023-09-28T01:20:18.151Z,16.50
2023-09-28T01:22:50.574Z,16.20
2023-09-28T01:25:20.109Z,16.30
2023-09-28T01:27:47.684Z,16.20
2023-09-28T01:30:15.259Z,16.30
2023-09-28T01:32:43.209Z,16.30
2023-09-28T01:35:12.339Z,16.40
2023-09-28T01:38:07.373Z,16.30
2023-09-28T01:40:34.065Z,16.10
2023-09-28T01:43:00.653Z,16.10
2023-09-28T01:45:27.192Z,16.10
2023-09-28T01:47:53.740Z,16.20
2023-09-28T01:50:20.308Z,16.20
2023-09-28T01:52:47.078Z,16.20
2023-09-28T01:55:13.921Z,16.20
2023-09-28T01:57:42.355Z,16.10
2023-09-28T02:00:21.068Z,16.20
2023-09-28T02:02:48.966Z,16.20
2023-09-28T02:05:20.019Z,16.20
2023-09-28T02:07:47.111Z,16.10
2023-09-28T02:10:14.037Z,16.20
2023-09-28T02:12:41.696Z,16.30
2023-09-28T02:15:10.629Z,16.40
2023-09-28T02:17:38.177Z,16.40
2023-09-28T02:20:11.767Z,16.40
2023-09-28T02:22:44.597Z,16.40
2023-09-28T02:25:19.342Z,16.30
2023-09-28T02:27:47.585Z,16.20
2023-09-28T02:30:18.211Z,16.30
2023-09-28T02:32:45.502Z,16.40
2023-09-28T02:35:15.254Z,16.40
2023-09-28T02:37:44.048Z,16.50
2023-09-28T02:40:11.882Z,16.50
2023-09-28T02:42:38.651Z,16.60
2023-09-28T02:45:12.337Z,16.60
2023-09-28T02:47:44.490Z,16.50
2023-09-28T02:50:12.716Z,16.40
2023-09-28T02:52:41.982Z,16.40
2023-09-28T02:55:10.271Z,16.20
2023-09-28T02:57:37.214Z,16.20
2023-09-28T03:00:24.460Z,16.20
2023-09-28T03:02:53.076Z,16.10
2023-09-28T03:05:24.219Z,16.00
2023-09-28T03:07:51.946Z,16.00
2023-09-28T03:10:19.043Z,15.90
2023-09-28T03:12:48.645Z,15.90
2023-09-28T03:15:15.807Z,16.00
2023-09-28T03:17:43.496Z,16.00
2023-09-28T03:20:15.217Z,16.00
2023-09-28T03:22:44.634Z,15.90
2023-09-28T03:25:17.655Z,15.80
2023-09-28T03:27:46.496Z,15.70
2023-09-28T03:30:14.968Z,15.70
2023-09-28T03:32:42.340Z,15.70
2023-09-28T03:35:13.345Z,15.70
2023-09-28T03:37:44.389Z,15.70
2023-09-28T03:40:13.257Z,15.70
2023-09-28T03:42:49.935Z,15.80
2023-09-28T03:45:21.373Z,15.70
2023-09-28T03:47:52.517Z,15.60
2023-09-28T03:50:23.908Z,15.60
2023-09-28T03:52:51.832Z,15.60
2023-09-28T03:55:20.745Z,15.60
2023-09-28T03:57:48.041Z,15.60
2023-09-28T04:00:17.038Z,15.70
2023-09-28T04:02:48.449Z,15.70
2023-09-28T04:05:16.452Z,15.70
2023-09-28T04:07:44.386Z,15.70
2023-09-28T04:10:12.568Z,15.70
2023-09-28T04:12:39.232Z,15.60
2023-09-28T04:15:06.452Z,15.60
2023-09-28T04:17:35.615Z,15.60
2023-09-28T04:20:05.923Z,15.70
2023-09-28T04:22:33.187Z,15.60
2023-09-28T04:24:59.800Z,15.60
2023-09-28T04:27:26.965Z,15.60
2023-09-28T04:29:53.611Z,15.60
2023-09-28T04:32:20.214Z,15.60
2023-09-28T04:34:47.002Z,15.60
2023-09-28T04:37:13.656Z,15.60
2023-09-28T04:39:40.257Z,15.70
2023-09-28T04:42:06.810Z,15.70
2023-09-28T04:44:33.321Z,15.80
2023-09-28T04:47:00.088Z,15.70
2023-09-28T04:49:26.803Z,15.70
2023-09-28T04:51:53.474Z,15.70
2023-09-28T04:54:20.132Z,15.80
2023-09-28T04:56:47.102Z,15.90
2023-09-28T04:59:13.907Z,15.90
2023-09-28T05:01:40.526Z,15.90
2023-09-28T05:04:12.078Z,15.90
2023-09-28T05:06:41.401Z,15.90
2023-09-28T05:09:08.540Z,15.90
2023-09-28T05:11:35.943Z,15.80
2023-09-28T05:14:02.727Z,15.60
2023-09-28T05:16:30.047Z,15.50
2023-09-28T05:18:56.829Z,15.50
2023-09-28T05:21:24.640Z,15.50
2023-09-28T05:23:51.541Z,15.50
2023-09-28T05:26:18.581Z,15.50
2023-09-28T05:28:45.588Z,15.40
2023-09-28T05:31:12.255Z,15.30
2023-09-28T05:33:39.261Z,15.40
2023-09-28T05:36:06.304Z,15.50
2023-09-28T05:38:32.825Z,15.50
2023-09-28T05:40:59.396Z,15.40
2023-09-28T05:43:26.077Z,15.20
2023-09-28T05:45:52.735Z,15.20
2023-09-28T05:48:19.391Z,15.20
2023-09-28T05:50:46.487Z,15.20
2023-09-28T05:53:13.189Z,15.20
2023-09-28T05:55:39.818Z,15.10
2023-09-28T05:58:06.421Z,15.10
2023-09-28T06:00:32.984Z,15.20
2023-09-28T06:02:59.798Z,15.40
2023-09-28T06:05:26.501Z,15.40
2023-09-28T06:07:55.167Z,15.50
2023-09-28T06:10:22.768Z,15.60
2023-09-28T06:12:49.458Z,15.60
2023-09-28T06:15:16.247Z,15.60
2023-09-28T06:17:43.385Z,15.50
2023-09-28T06:20:10.700Z,15.50
2023-09-28T06:22:37.511Z,15.70
2023-09-28T06:25:04.504Z,15.70
2023-09-28T06:27:31.465Z,15.90
2023-09-28T06:29:58.246Z,16.00
2023-09-28T06:32:26.931Z,16.20
2023-09-28T06:34:53.713Z,16.20
2023-09-28T06:37:20.277Z,16.20
2023-09-28T06:39:46.845Z,16.20
2023-09-28T06:44:48.151Z,16.20
2023-09-28T06:47:14.760Z,16.40
2023-09-28T06:49:41.345Z,16.60
2023-09-28T06:52:07.947Z,16.80
2023-09-28T06:54:34.738Z,16.90
2023-09-28T06:57:04.069Z,17.00
2023-09-28T06:59:30.668Z,17.10
2023-09-28T07:01:57.265Z,17.20
2023-09-28T07:04:23.833Z,17.20
2023-09-28T07:06:50.410Z,17.20
2023-09-28T07:09:17.010Z,17.30
2023-09-28T07:11:43.668Z,17.40
2023-09-28T07:14:10.283Z,17.50
2023-09-28T07:16:37.942Z,17.60
2023-09-28T07:19:06.165Z,17.70
2023-09-28T07:21:33.017Z,17.80
2023-09-28T07:24:08.865Z,17.80
2023-09-28T07:26:39.304Z,17.90
2023-09-28T07:29:05.874Z,18.00
2023-09-28T07:31:32.435Z,18.10
2023-09-28T07:33:59.153Z,18.20
2023-09-28T07:36:25.878Z,18.30
2023-09-28T07:38:52.598Z,18.40
2023-09-28T07:41:19.396Z,18.50
2023-09-28T07:43:45.964Z,18.60
2023-09-28T07:46:14.568Z,18.60
2023-09-28T07:48:41.509Z,18.70
2023-09-28T07:51:08.046Z,18.80
2023-09-28T07:53:34.562Z,18.90
2023-09-28T07:56:01.280Z,19.00
2023-09-28T07:58:29.248Z,19.20
2023-09-28T08:00:57.008Z,19.30
2023-09-28T08:03:23.960Z,19.50
2023-09-28T08:05:52.286Z,19.60
2023-09-28T08:08:20.154Z,19.70
2023-09-28T08:10:46.995Z,19.90
2023-09-28T08:13:14.546Z,20.00
2023-09-28T08:15:42.337Z,20.10
2023-09-28T08:18:09.914Z,20.30
2023-09-28T08:20:36.839Z,20.40
2023-09-28T08:23:06.010Z,20.50
2023-09-28T08:25:33.875Z,20.70
2023-09-28T08:28:00.662Z,20.80
2023-09-28T08:30:27.354Z,20.90
2023-09-28T08:32:54.597Z,21.00
2023-09-28T08:35:21.802Z,21.10
2023-09-28T08:37:48.748Z,21.20
2023-09-28T08:40:15.574Z,21.30
2023-09-28T08:42:47.396Z,21.40
2023-09-28T08:45:15.452Z,21.60
2023-09-28T08:47:49.422Z,21.70
2023-09-28T08:50:23.434Z,21.80
2023-09-28T08:52:55.449Z,21.90
2023-09-28T08:55:22.668Z,22.00
2023-09-28T08:57:49.455Z,22.10
2023-09-28T09:00:16.837Z,22.10
2023-09-28T09:02:44.709Z,22.20
2023-09-28T09:05:14.853Z,22.20
2023-09-28T09:07:45.075Z,22.30
2023-09-28T09:10:14.063Z,22.40
2023-09-28T09:12:40.722Z,22.50
2023-09-28T09:15:08.084Z,22.50
2023-09-28T09:17:36.099Z,22.60
2023-09-28T09:20:06.369Z,22.70
2023-09-28T09:22:41.357Z,22.80
2023-09-28T09:25:16.445Z,23.00
2023-09-28T09:27:44.359Z,23.10
2023-09-28T09:30:16.068Z,23.20
2023-09-28T09:32:44.043Z,23.30
2023-09-28T09:35:11.973Z,23.40
2023-09-28T09:37:42.826Z,23.50
2023-09-28T09:40:13.931Z,23.60
2023-09-28T09:42:43.046Z,23.80
2023-09-28T09:45:12.504Z,23.90
2023-09-28T09:47:49.683Z,24.00
2023-09-28T09:50:18.832Z,24.10
2023-09-28T09:52:46.075Z,24.20
2023-09-28T09:55:13.283Z,24.30
2023-09-28T09:57:42.844Z,24.40
2023-09-28T10:00:10.448Z,24.40
2023-09-28T10:02:40.607Z,24.40
2023-09-28T10:05:14.286Z,24.40
2023-09-28T10:10:13.528Z,24.50
2023-09-28T10:12:41.841Z,24.50
2023-09-28T10:15:09.950Z,24.60
2023-09-28T10:17:36.714Z,24.60
2023-09-28T10:20:05.604Z,24.70
2023-09-28T10:22:32.890Z,24.90
2023-09-28T10:24:59.504Z,24.90
2023-09-28T10:27:26.104Z,25.00
2023-09-28T10:30:22.511Z,25.10
2023-09-28T10:32:53.187Z,25.10
2023-09-28T10:35:31.064Z,25.10
2023-09-28T10:38:21.183Z,25.20
2023-09-28T10:41:04.016Z,25.30
2023-09-28T10:43:33.825Z,25.30
2023-09-28T10:46:05.092Z,25.40
2023-09-28T10:48:46.494Z,25.50
2023-09-28T10:51:15.072Z,25.60
2023-09-28T10:53:42.658Z,25.60
2023-09-28T10:56:10.304Z,25.60
2023-09-28T10:58:37.739Z,25.80
2023-09-28T11:01:08.194Z,25.70
2023-09-28T11:03:36.469Z,25.80
2023-09-28T11:06:05.179Z,26.00
2023-09-28T11:08:33.122Z,26.00
2023-09-28T11:11:02.760Z,26.10
2023-09-28T11:13:32.603Z,26.10
2023-09-28T11:16:00.432Z,26.20
2023-09-28T11:18:28.209Z,26.30
2023-09-28T11:20:59.355Z,26.50
2023-09-28T11:23:26.094Z,26.60
2023-09-28T11:25:53.934Z,26.70
2023-09-28T11:28:22.300Z,26.70
2023-09-28T11:31:13.109Z,26.80
2023-09-28T11:33:44.621Z,26.80
2023-09-28T11:36:16.801Z,26.80
2023-09-28T11:38:44.408Z,26.90
2023-09-28T11:41:11.255Z,26.90
2023-09-28T11:43:55.264Z,27.00
2023-09-28T11:46:26.562Z,27.10
2023-09-28T11:49:15.555Z,27.30
2023-09-28T11:51:42.636Z,27.30
2023-09-28T11:54:13.578Z,27.40
2023-09-28T11:56:45.728Z,27.60
2023-09-28T11:59:18.448Z,27.70
2023-09-28T12:01:47.173Z,27.80
2023-09-28T12:04:14.530Z,27.80
2023-09-28T12:06:41.800Z,27.80
2023-09-28T12:09:09.770Z,27.90
2023-09-28T12:11:41.006Z,27.90
2023-09-28T12:14:08.987Z,27.90
2023-09-28T12:16:35.832Z,28.00
2023-09-28T12:19:02.487Z,28.10
2023-09-28T12:21:28.997Z,28.20
2023-09-28T12:23:57.403Z,28.30
2023-09-28T12:26:24.193Z,28.40
2023-09-28T12:28:50.783Z,28.40
2023-09-28T12:31:18.682Z,28.30
2023-09-28T12:33:47.157Z,28.30
2023-09-28T12:36:14.364Z,28.20
2023-09-28T12:38:42.373Z,28.20
2023-09-28T12:41:10.368Z,28.20
2023-09-28T12:43:37.692Z,28.20
2023-09-28T12:46:05.540Z,28.20
2023-09-28T12:48:32.208Z,28.30
2023-09-28T12:50:59.061Z,28.40
2023-09-28T12:53:27.297Z,28.50
2023-09-28T12:55:55.051Z,28.50
2023-09-28T12:58:21.825Z,28.70
2023-09-28T13:00:48.586Z,28.90
2023-09-28T13:03:15.319Z,29.10
2023-09-28T13:05:42.426Z,29.20
2023-09-28T13:08:16.492Z,29.30
2023-09-28T13:10:43.889Z,29.40
2023-09-28T13:13:10.592Z,29.40
2023-09-28T13:15:37.217Z,29.30
2023-09-28T13:18:08.535Z,29.40
2023-09-28T13:20:40.134Z,29.40
2023-09-28T13:23:07.802Z,29.30
2023-09-28T13:25:34.851Z,29.20
2023-09-28T13:28:01.910Z,29.10
2023-09-28T13:30:30.616Z,29.20
2023-09-28T13:33:00.726Z,29.30
2023-09-28T13:35:27.748Z,29.40
2023-09-28T13:37:54.360Z,29.50
2023-09-28T13:40:29.484Z,29.40
2023-09-28T13:42:58.010Z,29.50
2023-09-28T13:45:24.868Z,29.50
2023-09-28T13:47:51.600Z,29.50
2023-09-28T13:50:18.446Z,29.60
2023-09-28T13:52:46.689Z,29.60
2023-09-28T13:55:17.324Z,29.50
2023-09-28T13:57:48.317Z,29.40
2023-09-28T14:00:23.134Z,29.40
2023-09-28T14:02:49.900Z,29.10
2023-09-28T14:05:16.834Z,29.10
2023-09-28T14:07:43.522Z,29.00
2023-09-28T14:10:10.359Z,28.90
2023-09-28T14:12:37.010Z,28.90
2023-09-28T14:15:05.546Z,28.90
2023-09-28T14:17:38.819Z,28.90
2023-09-28T14:20:08.429Z,29.00
2023-09-28T14:22:35.080Z,28.90
2023-09-28T14:25:01.951Z,28.90
2023-09-28T14:27:29.415Z,29.00
2023-09-28T14:29:55.955Z,29.20
2023-09-28T14:32:22.526Z,29.10
2023-09-28T14:34:49.228Z,29.20
2023-09-28T14:37:15.791Z,29.10
2023-09-28T14:39:42.626Z,29.00
2023-09-28T14:42:09.383Z,29.10
2023-09-28T14:44:36.157Z,29.20
2023-09-28T14:47:03.011Z,29.20
2023-09-28T14:49:29.576Z,29.10
2023-09-28T14:51:56.104Z,29.10
2023-09-28T14:54:22.673Z,29.00
2023-09-28T14:56:49.817Z,28.90
2023-09-28T14:59:16.383Z,28.90
2023-09-28T15:01:42.940Z,28.80
2023-09-28T15:04:09.727Z,28.80
2023-09-28T15:06:36.829Z,28.80
2023-09-28T15:09:04.025Z,28.90
2023-09-28T15:11:30.770Z,28.90
2023-09-28T15:13:57.441Z,28.90
2023-09-28T15:16:24.470Z,28.90
2023-09-28T15:18:51.059Z,28.90
2023-09-28T15:21:17.644Z,28.90
2023-09-28T15:23:44.234Z,28.90
2023-09-28T15:26:10.932Z,29.00
2023-09-28T15:28:39.468Z,28.90
2023-09-28T15:31:06.771Z,28.90
2023-09-28T15:33:33.486Z,28.90
2023-09-28T15:36:00.238Z,28.80
2023-09-28T15:38:26.933Z,28.80
2023-09-28T15:40:53.723Z,28.80
2023-09-28T15:43:20.992Z,28.60
2023-09-28T15:45:49.318Z,28.50
2023-09-28T15:48:15.933Z,28.40
2023-09-28T15:50:42.616Z,28.20
2023-09-28T15:53:09.205Z,28.20
2023-09-28T15:55:35.838Z,28.10
2023-09-28T15:58:02.496Z,28.00
2023-09-28T16:00:36.820Z,27.80
2023-09-28T16:03:04.537Z,27.80
2023-09-28T16:05:31.329Z,27.70
2023-09-28T16:07:59.641Z,27.70
2023-09-28T16:10:26.684Z,27.60
2023-09-28T16:12:54.060Z,27.60
2023-09-28T16:15:20.820Z,27.50
2023-09-28T16:17:47.571Z,27.50
2023-09-28T16:20:14.459Z,27.40
2023-09-28T16:22:41.206Z,27.20
2023-09-28T16:25:08.361Z,27.20
2023-09-28T16:27:35.006Z,27.10
2023-09-28T16:30:01.542Z,27.00
2023-09-28T16:32:28.819Z,26.90
2023-09-28T16:34:55.538Z,26.90
2023-09-28T16:37:22.226Z,26.90
2023-09-28T16:39:48.784Z,26.80
2023-09-28T16:42:15.383Z,26.70
2023-09-28T16:44:41.981Z,26.60
2023-09-28T16:47:08.660Z,26.60
2023-09-28T16:49:35.255Z,26.50
2023-09-28T16:52:02.134Z,26.50
2023-09-28T16:54:28.724Z,26.40
2023-09-28T16:56:55.333Z,26.20
2023-09-28T16:59:21.997Z,26.10
2023-09-28T17:01:48.871Z,26.00
2023-09-28T17:04:15.524Z,25.90
2023-09-28T17:06:42.647Z,25.80
2023-09-28T17:09:09.192Z,25.70
2023-09-28T17:11:35.776Z,25.60
2023-09-28T17:14:02.465Z,25.50
2023-09-28T17:16:29.468Z,25.40
2023-09-28T17:18:56.552Z,25.30
2023-09-28T17:21:23.175Z,25.20
2023-09-28T17:23:50.004Z,25.00
2023-09-28T17:26:16.626Z,24.80
2023-09-28T17:28:44.165Z,24.80
2023-09-28T17:31:10.974Z,24.70
2023-09-28T17:33:37.585Z,24.60
2023-09-28T17:36:04.257Z,24.60
2023-09-28T17:38:30.930Z,24.50
2023-09-28T17:40:58.266Z,24.50
2023-09-28T17:43:24.857Z,24.30
2023-09-28T17:45:52.023Z,24.30
2023-09-28T17:48:18.829Z,24.20
2023-09-28T17:50:45.687Z,24.10
2023-09-28T17:53:12.980Z,24.00
2023-09-28T17:55:40.334Z,24.00
2023-09-28T17:58:06.874Z,23.90
2023-09-28T18:00:33.430Z,23.90
2023-09-28T18:03:02.334Z,23.90
2023-09-28T18:05:31.324Z,23.80
2023-09-28T18:07:58.329Z,23.50
2023-09-28T18:10:25.214Z,23.40
2023-09-28T18:12:51.900Z,23.30
2023-09-28T18:15:20.744Z,23.30
2023-09-28T18:17:48.227Z,23.20
2023-09-28T18:20:15.445Z,23.20
2023-09-28T18:22:42.052Z,23.20
2023-09-28T18:25:10.411Z,23.00
2023-09-28T18:27:38.621Z,22.80
2023-09-28T18:30:09.607Z,22.70
2023-09-28T18:32:37.356Z,22.70
2023-09-28T18:35:04.543Z,22.60
2023-09-28T18:37:32.843Z,22.50
2023-09-28T18:40:00.509Z,22.40
2023-09-28T18:42:28.289Z,22.30
2023-09-28T18:44:54.894Z,22.10
2023-09-28T18:47:21.590Z,22.00
2023-09-28T18:49:49.025Z,22.00
2023-09-28T18:52:15.777Z,22.00
2023-09-28T18:54:43.066Z,22.00
2023-09-28T18:57:09.694Z,22.00
2023-09-28T18:59:36.278Z,21.90
2023-09-28T19:02:03.812Z,21.90
2023-09-28T19:04:32.271Z,21.90
2023-09-28T19:07:01.220Z,21.80
2023-09-28T19:09:28.068Z,21.70
2023-09-28T19:11:54.692Z,21.70
2023-09-28T19:14:24.759Z,21.60
2023-09-28T19:16:53.424Z,21.60
2023-09-28T19:19:20.338Z,21.50
2023-09-28T19:21:46.882Z,21.40
2023-09-28T19:24:13.485Z,21.30
2023-09-28T19:26:40.514Z,21.30
2023-09-28T19:29:09.782Z,21.30
2023-09-28T19:31:37.349Z,21.20
2023-09-28T19:34:08.368Z,21.20
2023-09-28T19:36:36.211Z,21.10
2023-09-28T19:39:03.717Z,21.10
2023-09-28T19:41:30.466Z,21.00
2023-09-28T19:43:59.246Z,21.00
2023-09-28T19:46:25.929Z,20.90
2023-09-28T19:48:53.348Z,20.90
2023-09-28T19:51:22.780Z,20.80
2023-09-28T19:53:49.934Z,20.80
2023-09-28T19:56:27.092Z,20.80
2023-09-28T19:58:54.300Z,20.80
2023-09-28T20:01:21.853Z,20.70
2023-09-28T20:03:48.979Z,20.60
2023-09-28T20:06:16.291Z,20.50
2023-09-28T20:08:42.994Z,20.50
2023-09-28T20:11:09.897Z,20.40
2023-09-28T20:13:37.124Z,20.30
2023-09-28T20:16:05.796Z,20.30
2023-09-28T20:18:32.853Z,20.20
2023-09-28T20:21:04.305Z,20.10
2023-09-28T20:23:31.188Z,20.10
2023-09-28T20:25:57.808Z,20.10
2023-09-28T20:28:24.727Z,20.10
2023-09-28T20:30:51.729Z,20.10
2023-09-28T20:33:18.598Z,20.20
2023-09-28T20:35:46.246Z,20.20
2023-09-28T20:38:13.641Z,20.20
2023-09-28T20:40:40.353Z,20.20
2023-09-28T20:43:10.092Z,20.20
2023-09-28T20:45:40.627Z,20.20
2023-09-28T20:48:08.141Z,20.30
2023-09-28T20:50:35.517Z,20.30
2023-09-28T20:53:02.902Z,20.30
2023-09-28T20:55:30.541Z,20.10
2023-09-28T20:57:57.193Z,20.00
2023-09-28T21:00:24.004Z,20.00
2023-09-28T21:02:50.724Z,19.90
2023-09-28T21:05:17.488Z,19.80
2023-09-28T21:07:46.352Z,19.80
2023-09-28T21:10:14.121Z,19.80
2023-09-28T21:12:42.158Z,19.80
2023-09-28T21:15:11.881Z,19.80
2023-09-28T21:17:39.995Z,19.70
2023-09-28T21:20:08.401Z,19.70
2023-09-28T21:22:35.101Z,19.80
2023-09-28T21:25:01.773Z,19.80
2023-09-28T21:27:28.275Z,19.90
2023-09-28T21:29:55.967Z,19.80
2023-09-28T21:32:22.702Z,19.80
2023-09-28T21:34:49.278Z,19.70
2023-09-28T21:37:15.798Z,19.80
2023-09-28T21:39:42.298Z,19.90
2023-09-28T21:42:08.862Z,20.10
2023-09-28T21:44:39.654Z,20.20
2023-09-28T21:47:06.349Z,20.30
2023-09-28T21:49:32.848Z,20.10
2023-09-28T21:51:59.400Z,20.00
2023-09-28T21:54:27.280Z,20.00
2023-09-28T21:56:53.927Z,20.10
2023-09-28T21:59:20.551Z,20.20
2023-09-28T22:01:48.140Z,20.20
2023-09-28T22:04:14.741Z,20.10
2023-09-28T22:06:41.735Z,20.00
2023-09-28T22:09:08.283Z,20.10
2023-09-28T22:11:34.809Z,20.10
2023-09-28T22:14:01.745Z,20.10
2023-09-28T22:16:28.425Z,20.10
2023-09-28T22:18:55.593Z,20.20
2023-09-28T22:21:23.256Z,20.20
2023-09-28T22:23:50.012Z,20.20
2023-09-28T22:26:16.772Z,20.20
2023-09-28T22:28:43.339Z,20.20
2023-09-28T22:31:09.929Z,20.20
2023-09-28T22:33:36.487Z,20.10
2023-09-28T22:36:03.247Z,20.00
2023-09-28T22:38:29.893Z,19.80
2023-09-28T22:40:56.709Z,19.80
2023-09-28T22:43:24.183Z,19.80
2023-09-28T22:45:50.798Z,19.80
2023-09-28T22:48:17.456Z,19.80
2023-09-28T22:50:44.051Z,19.70
2023-09-28T22:53:10.640Z,19.60
2023-09-28T22:55:37.092Z,19.40
2023-09-28T22:58:03.778Z,19.30
2023-09-28T23:00:30.597Z,19.10
2023-09-28T23:02:57.237Z,19.00
2023-09-28T23:05:23.796Z,18.90
2023-09-28T23:07:50.380Z,18.90
2023-09-28T23:10:17.691Z,18.90
2023-09-28T23:12:44.550Z,19.00
2023-09-28T23:15:15.608Z,18.90
2023-09-28T23:17:43.175Z,18.90
2023-09-28T23:20:13.840Z,18.90
2023-09-28T23:22:42.994Z,18.90
2023-09-28T23:25:13.355Z,18.90
2023-09-28T23:27:43.432Z,18.80
2023-09-28T23:30:18.391Z,18.70
2023-09-28T23:32:50.806Z,18.70
2023-09-28T23:35:25.672Z,18.70
2023-09-28T23:37:53.460Z,18.70
2023-09-28T23:40:23.710Z,18.70
2023-09-28T23:42:52.112Z,18.60
2023-09-28T23:45:20.234Z,18.60
2023-09-28T23:47:48.856Z,18.70
2023-09-28T23:50:15.981Z,18.70
2023-09-28T23:52:44.767Z,18.70
2023-09-28T23:55:13.026Z,18.80
2023-09-28T23:57:40.332Z,18.80
